Latest Weather Observations for Lucas Heights (ANSTO)

IDN60901

Issued at 8:31 pm EDT Wednesday 29 January 2020 (issued every 10 minutes, with the page automatically refreshed every 10 minutes)

About weather observations | Map of Sydney area stations | Latest observations for Sydney area | Other Formats
Station Details ID: 066023 Name: LUCAS HEIGHTS (ANSTO) Lat: -34.05 Lon: 150.98 Height: 140.0 m
Data from the previous 72 hours. | See also: Recent months for locations in New South Wales
Date/Time
EDT
Temp
°C
App
Temp
°C
Dew
Point
°C
Rel
Hum
%
Delta-T
°C
Wind Press
QNH
hPa
Press
MSL
hPa
Rain since
9am
mm
Dir  Spd
km/h
Gust
km/h
Spd
kts
Gust
kts
29/08:00pm 22.7 22.7 18.0 75 2.9 E 15 19 8 10 1017.3 - 0.0
29/07:45pm 22.7 22.2 17.7 73 3.1 ESE 17 20 9 11 1017.1 - 0.0
29/07:30pm 22.9 22.7 17.6 72 3.3 ESE 15 20 8 11 1016.9 - 0.0
29/07:15pm 23.4 22.8 17.6 70 3.6 E 17 22 9 12 1016.6 - 0.0
29/07:00pm 23.6 23.4 17.7 69 3.7 ESE 15 19 8 10 1016.4 - 0.0
29/06:45pm 23.5 22.3 17.5 69 3.7 ESE 20 26 11 14 1016.3 - 0.0
29/06:30pm 23.7 22.2 17.7 69 3.8 ESE 22 28 12 15 1016.3 - 0.0
29/06:15pm 23.6 21.6 17.5 68 3.8 ESE 24 28 13 15 1016.2 - 0.0
29/06:00pm 23.7 21.9 17.9 70 3.6 ESE 24 30 13 16 1016.1 - 0.0
29/05:45pm 23.3 20.3 17.7 71 3.5 ESE 30 32 16 17 1016.2 - 0.0
29/05:30pm 23.7 21.1 17.9 70 3.6 ESE 28 35 15 19 1016.2 - 0.0
29/05:15pm 24.0 22.3 18.1 69 3.7 ESE 24 32 13 17 1016.1 - 0.0
29/05:00pm 23.9 21.4 18.1 70 3.7 ESE 28 32 15 17 1016.1 - 0.0
29/04:45pm 24.1 22.1 18.2 69 3.7 SE 26 32 14 17 1016.1 - 0.0
29/04:30pm 24.7 22.8 18.6 69 3.9 ESE 26 30 14 16 1016.0 - 0.0
29/04:15pm 24.4 22.9 18.5 69 3.8 ESE 24 30 13 16 1016.0 - 0.0
29/04:00pm 24.7 24.0 18.7 69 3.8 E 20 28 11 15 1015.9 - 0.0
29/03:45pm 24.6 23.5 18.6 69 3.8 SE 22 28 12 15 1015.9 - 0.0
29/03:30pm 24.3 23.1 18.4 69 3.7 ESE 22 28 12 15 1015.9 - 0.0
29/03:15pm 24.6 23.0 18.4 68 3.9 ESE 24 32 13 17 1015.9 - 0.0
29/03:00pm 24.8 23.2 18.3 67 4.1 ESE 24 30 13 16 1015.7 - 0.0
29/02:45pm 25.2 23.5 18.1 64 4.5 ESE 24 28 13 15 1015.7 - 0.0
29/02:30pm 25.6 24.7 18.3 64 4.6 E 20 28 11 15 1015.7 - 0.0
29/02:15pm 25.1 24.3 18.1 65 4.4 ESE 19 28 10 15 1015.8 - 0.0
29/02:00pm 25.4 24.8 18.4 65 4.5 ESE 19 24 10 13 1015.9 - 0.0
29/01:45pm 25.8 25.2 18.9 65 4.4 ESE 20 26 11 14 1015.9 - 0.0
29/01:30pm 25.3 24.6 18.6 66 4.3 ESE 20 26 11 14 1016.0 - 0.0
29/01:15pm 25.1 24.4 18.7 67 4.1 ESE 20 24 11 13 1016.1 - 0.0
29/01:00pm 25.1 24.9 18.6 67 4.1 E 17 22 9 12 1016.2 - 0.0
29/12:45pm 24.8 24.5 18.3 67 4.1 ESE 17 22 9 12 1016.4 - 0.0
29/12:30pm 24.9 24.6 18.3 66 4.2 SE 17 20 9 11 1016.4 - 0.0
29/12:15pm 25.1 24.4 18.2 65 4.4 ESE 19 22 10 12 1016.4 - 0.0
29/12:00pm 25.2 25.4 18.5 66 4.3 SE 15 20 8 11 1016.4 - 0.0
29/11:45am 24.8 24.8 18.0 66 4.3 ESE 15 19 8 10 1016.5 - 0.0
29/11:30am 24.7 25.1 18.2 67 4.1 ESE 13 17 7 9 1016.6 - 0.0
29/11:15am 24.4 24.0 18.0 67 4.0 SE 17 22 9 12 1016.7 - 0.0
29/11:00am 24.3 24.2 17.9 67 4.0 SE 15 22 8 12 1016.8 - 0.0
29/10:45am 24.2 23.7 17.9 68 4.0 SE 17 22 9 12 1016.7 - 0.0
29/10:30am 23.5 23.0 17.7 70 3.6 SE 17 20 9 11 1016.7 - 0.0
29/10:15am 23.0 22.7 17.4 70 3.5 SE 15 19 8 10 1016.8 - 0.0
29/10:00am 23.0 21.9 17.3 70 3.5 SE 19 22 10 12 1016.8 - 0.0
29/09:45am 22.8 22.6 17.5 72 3.3 SSE 15 19 8 10 1016.7 - 0.0
29/09:30am 22.6 22.3 17.3 72 3.3 SSE 15 17 8 9 1016.6 - 0.0
29/09:15am 22.7 22.4 17.4 72 3.3 SSE 15 22 8 12 1016.5 - 0.0
29/09:00am 22.8 22.6 17.6 72 3.2 SSE 15 22 8 12 1016.4 - 0.0
29/08:45am 22.1 21.1 17.5 75 2.9 SSE 19 26 10 14 1016.3 - 0.0
29/08:30am 21.8 20.3 17.6 77 2.6 SSE 22 28 12 15 1016.3 - 0.0
29/08:15am 21.8 20.7 17.7 77 2.6 SSE 20 28 11 15 1016.2 - 0.0
29/08:00am 21.7 22.0 17.8 78 2.4 SSE 13 19 7 10 1016.0 - 0.0
29/07:45am 21.8 20.9 17.8 78 2.5 SSE 19 22 10 12 1015.9 - 0.0
29/07:30am 21.5 20.5 17.9 80 2.2 SSE 20 26 11 14 1015.8 - 0.0
29/07:15am 21.2 20.1 17.8 81 2.1 SSE 20 32 11 17 1015.7 - 0.0
29/07:00am 21.1 19.7 17.9 82 2.0 SSE 22 28 12 15 1015.6 - 0.0
29/06:45am 21.1 20.1 17.9 82 2.0 SSE 20 28 11 15 1015.5 - 0.0
29/06:30am 21.1 20.3 17.9 82 2.0 SSE 19 30 10 16 1015.3 - 0.0
29/06:15am 21.1 20.3 17.9 82 2.0 SSE 19 26 10 14 1015.1 - 0.0
29/06:00am 21.2 19.7 17.8 81 2.1 SSE 22 32 12 17 1014.8 - 0.0
29/05:45am 21.4 19.6 17.9 80 2.2 SSE 24 32 13 17 1014.6 - 0.0
29/05:30am 21.5 20.1 18.0 80 2.2 SSE 22 28 12 15 1014.6 - 0.0
29/05:15am 21.5 20.7 18.1 81 2.1 SSE 19 24 10 13 1014.5 - 0.0
29/05:00am 21.5 21.2 18.3 82 2.0 SSE 17 24 9 13 1014.5 - 0.0
29/04:45am 21.5 21.3 18.5 83 1.9 SSE 17 22 9 12 1014.4 - 0.0
29/04:30am 21.5 21.8 18.7 84 1.8 SSE 15 22 8 12 1014.4 - 0.0
29/04:15am 21.6 21.5 18.8 84 1.8 SSE 17 26 9 14 1014.4 - 0.0
29/04:00am 21.7 21.3 18.9 84 1.8 SSE 19 24 10 13 1014.4 - 0.0
29/03:45am 21.7 21.7 19.0 84 1.7 SSE 17 30 9 16 1014.4 - 0.0
29/03:30am 21.8 20.9 19.1 84 1.7 SSE 22 32 12 17 1014.4 - 0.0
29/03:15am 21.9 21.5 19.3 85 1.7 S 20 28 11 15 1014.4 - 0.0
29/03:00am 22.0 21.8 19.4 85 1.7 S 19 26 10 14 1014.6 - 0.0
29/02:45am 22.1 22.0 19.5 85 1.7 SSE 19 24 10 13 1014.6 - 0.0
29/02:30am 22.1 21.4 19.5 85 1.7 SSE 22 28 12 15 1014.5 - 0.0
29/02:15am 22.1 21.8 19.6 86 1.6 SSE 20 28 11 15 1014.5 - 0.0
29/02:00am 22.2 22.0 19.7 86 1.6 SSE 20 28 11 15 1014.6 - 0.0
29/01:45am 22.2 20.9 19.8 86 1.5 SSE 26 33 14 18 1014.6 - 0.0
29/01:30am 22.1 21.6 19.9 87 1.4 S 22 28 12 15 1014.6 - 0.0
29/01:15am 22.1 21.2 19.9 87 1.4 SSE 24 35 13 19 1015.3 - 0.0
29/01:00am 22.1 20.0 19.8 87 1.5 SSE 30 37 16 20 1014.6 - 0.0
29/12:45am 22.5 22.4 20.0 86 1.6 SSE 20 32 11 17 1014.7 - 0.0
29/12:30am 22.6 21.4 20.0 85 1.7 SSE 26 37 14 20 1014.7 - 0.0
29/12:15am 22.7 22.3 20.1 85 1.7 SSE 22 28 12 15 1014.7 - 0.0
29/12:00am 22.7 22.3 20.2 86 1.6 SSE 22 26 12 14 1014.7 - 0.0
 
Date/Time
EDT
Temp
°C
App
Temp
°C
Dew
Point
°C
Rel
Hum
%
Delta-T
°C
Wind Press
QNH
hPa
Press
MSL
hPa
Rain since
9am
mm
Dir  Spd
km/h
Gust
km/h
Spd
kts
Gust
kts
28/11:45pm 22.8 22.1 20.2 85 1.7 SSE 24 33 13 18 1014.5 - 0.0
28/11:30pm 22.9 21.4 20.3 85 1.7 SSE 28 35 15 19 1014.5 - 0.0
28/11:15pm 23.0 20.6 20.4 85 1.7 SSE 33 41 18 22 1014.4 - 0.0
28/11:00pm 23.1 20.8 20.5 85 1.7 SSE 33 41 18 22 1014.4 - 0.0
28/10:45pm 23.2 20.6 20.7 86 1.6 SSE 35 43 19 23 1014.4 - 0.0
28/10:30pm 23.1 21.5 20.7 86 1.6 SSE 30 39 16 21 1014.3 - 0.0
28/10:15pm 23.1 20.9 20.7 86 1.6 SSE 33 43 18 23 1014.0 - 0.0
28/10:00pm 23.1 20.9 20.7 86 1.6 SSE 33 39 18 21 1013.7 - 0.0
28/09:45pm 23.2 20.3 20.8 86 1.6 SSE 37 50 20 27 1013.4 - 0.0
28/09:30pm 23.3 20.7 20.7 85 1.7 SSE 35 43 19 23 1013.0 - 0.0
28/09:15pm 23.3 20.9 20.4 84 1.9 SSE 33 41 18 22 1012.7 - 0.0
28/09:00pm 23.3 20.6 20.4 84 1.9 SSE 35 43 19 23 1012.6 - 0.0
28/08:45pm 23.2 20.0 20.3 84 1.9 SSE 37 46 20 25 1012.3 - 0.0
28/08:30pm 23.3 19.8 20.4 84 1.9 SSE 39 46 21 25 1012.1 - 0.0
28/08:15pm 23.4 19.6 20.5 84 1.9 SSE 41 46 22 25 1011.9 - 0.0
28/08:00pm 23.4 19.3 20.7 85 1.8 SSE 43 50 23 27 1011.8 - 0.0
28/07:45pm 23.7 20.5 21.1 85 1.7 SSE 39 46 21 25 1011.6 - 0.0
28/07:30pm 24.0 22.2 21.2 84 1.9 SE 32 41 17 22 1011.6 - 0.0
28/07:15pm 24.2 22.5 21.3 84 1.9 SE 32 46 17 25 1011.3 - 0.0
28/07:00pm 24.3 22.6 21.4 84 1.9 SSE 32 41 17 22 1010.9 - 0.0
28/06:45pm 24.2 23.2 21.3 84 1.9 SE 28 37 15 20 1010.9 - 0.0
28/06:30pm 24.2 22.2 21.2 83 2.0 ESE 33 39 18 21 1010.7 - 0.0
28/06:15pm 24.4 23.4 21.3 83 2.1 ESE 28 37 15 20 1010.6 - 0.0
28/06:00pm 24.4 23.1 21.3 83 2.1 ESE 30 37 16 20 1010.5 - 0.0
28/05:45pm 24.7 22.7 21.2 81 2.3 ESE 33 39 18 21 1009.8 - 0.0
28/05:30pm 25.5 24.2 21.3 77 2.8 SE 30 37 16 20 1009.4 - 0.0
28/05:15pm 25.8 25.3 21.4 76 2.9 ESE 26 33 14 18 1009.0 - 0.0
28/05:00pm 26.0 24.5 21.7 77 2.9 ESE 32 37 17 20 1009.1 - 0.0
28/04:45pm 26.8 25.8 21.9 74 3.3 SE 30 35 16 19 1009.1 - 0.0
28/04:30pm 27.7 28.4 22.2 72 3.7 ESE 22 26 12 14 1008.9 - 0.0
28/04:15pm 28.2 29.0 22.5 71 3.9 ESE 22 28 12 15 1009.0 - 0.0
28/04:00pm 28.7 29.9 22.5 69 4.2 ESE 20 26 11 14 1009.0 - 0.0
28/03:45pm 29.3 31.1 22.6 67 4.6 E 17 20 9 11 1009.1 - 0.0
28/03:30pm 28.8 30.6 22.5 68 4.3 E 17 19 9 10 1009.2 - 0.0
28/03:15pm 29.1 30.7 22.2 66 4.7 E 17 20 9 11 1009.2 - 0.0
28/03:00pm 29.6 31.3 22.4 65 4.9 ENE 17 19 9 10 1009.2 - 0.0
28/02:45pm 29.7 31.1 22.6 65 4.9 NE 19 22 10 12 1009.2 - 0.0
28/02:30pm 29.9 31.8 22.8 65 4.9 ENE 17 22 9 12 1009.4 - 0.0
28/02:15pm 29.7 32.0 22.8 66 4.7 NE 15 19 8 10 1009.7 - 0.0
28/02:00pm 29.5 32.1 22.6 66 4.7 NE 13 17 7 9 1010.0 - 0.0
28/01:45pm 29.4 32.9 22.8 67 4.5 ENE 9 15 5 8 1010.2 - 0.0
28/01:30pm 29.0 31.6 22.6 68 4.4 ENE 13 17 7 9 1010.6 - 0.0
28/01:15pm 29.3 31.8 22.5 67 4.6 ENE 13 17 7 9 1010.7 - 0.0
28/01:00pm 29.1 32.3 22.3 66 4.6 ENE 9 15 5 8 1010.8 - 0.0
28/12:45pm 28.9 32.0 22.1 66 4.6 NE 9 19 5 10 1011.0 - 0.0
28/12:30pm 28.7 32.3 22.4 68 4.3 NNE 7 13 4 7 1011.0 - 0.0
28/12:15pm 27.7 31.1 22.0 71 3.8 NNE 7 15 4 8 1011.2 - 0.0
28/12:00pm 27.7 30.2 21.8 70 4.0 N 11 15 6 8 1011.5 - 0.0
28/11:45am 27.8 31.4 22.1 71 3.9 NE 6 11 3 6 1011.9 - 0.0
28/11:30am 27.4 30.8 22.0 72 3.6 ENE 7 13 4 7 1012.0 - 0.0
28/11:15am 26.5 29.7 21.6 74 3.3 NE 7 11 4 6 1012.0 - 0.0
28/11:00am 26.3 29.7 21.6 75 3.1 NNW 6 9 3 5 1012.2 - 0.0
28/10:45am 25.5 29.2 21.4 78 2.7 E 4 7 2 4 1012.4 - 0.0
28/10:30am 25.5 28.2 21.4 78 2.7 SE 9 13 5 7 1012.6 - 0.0
28/10:15am 25.4 28.2 21.5 79 2.6 SE 9 13 5 7 1012.9 - 0.0
28/10:00am 24.8 27.5 21.3 81 2.3 ESE 9 11 5 6 1013.0 - 0.0
28/09:45am 24.5 27.5 21.2 82 2.2 SE 7 13 4 7 1013.0 - 0.0
28/09:30am 24.3 27.0 21.3 83 2.0 SSE 9 11 5 6 1013.0 - 0.0
28/09:15am 24.0 26.3 21.3 85 1.8 SSE 11 13 6 7 1013.0 - 0.0
28/09:00am 23.7 26.3 21.2 86 1.7 SSE 9 11 5 6 1013.0 - 0.0
28/08:45am 23.4 25.9 21.1 87 1.5 SE 9 13 5 7 1013.0 - 0.0
28/08:30am 23.3 25.5 21.2 88 1.4 SE 11 17 6 9 1012.9 - 0.0
28/08:15am 23.0 24.8 21.2 89 1.2 SSE 13 17 7 9 1012.8 - 0.0
28/08:00am 22.7 24.1 21.0 90 1.1 SE 15 20 8 11 1012.7 - 0.0
28/07:45am 22.5 23.9 21.0 91 1.0 SE 15 20 8 11 1012.5 - 0.0
28/07:30am 22.3 23.9 20.8 91 1.0 SE 13 17 7 9 1012.3 - 0.0
28/07:15am 22.1 22.9 20.7 92 0.9 SSE 17 20 9 11 1012.3 - 0.0
28/07:00am 21.8 22.5 20.5 92 0.8 SSE 17 20 9 11 1012.1 - 0.0
28/06:45am 21.7 22.4 20.5 93 0.8 SSE 17 20 9 11 1012.1 - 0.0
28/06:30am 21.7 22.0 20.4 92 0.8 SSE 19 20 10 11 1012.1 - 0.0
28/06:15am 21.5 22.5 20.3 93 0.8 SSE 15 19 8 10 1012.0 - 0.0
28/06:00am 21.5 22.5 20.2 92 0.8 SSE 15 17 8 9 1011.8 - 0.0
28/05:45am 21.4 22.3 20.1 92 0.8 SSE 15 17 8 9 1011.8 - 0.0
28/05:30am 21.2 22.0 19.9 92 0.8 S 15 15 8 8 1011.7 - 0.0
28/05:15am 21.2 22.4 19.8 92 0.9 SSE 13 13 7 7 1011.5 - 0.0
28/05:00am 21.2 23.1 19.8 92 0.9 SSE 9 11 5 6 1011.4 - 0.0
28/04:45am 21.2 22.8 19.9 92 0.8 SSE 11 11 6 6 1011.4 - 0.0
28/04:30am 21.3 22.9 19.9 92 0.9 SSE 11 11 6 6 1011.3 - 0.0
28/04:15am 21.4 23.0 20.0 92 0.9 SSE 11 11 6 6 1011.3 - 0.0
28/04:00am 21.5 23.1 20.0 91 1.0 SE 11 11 6 6 1011.4 - 0.0
28/03:45am 21.5 23.1 20.0 91 1.0 SSE 11 11 6 6 1011.6 - 0.0
28/03:30am 21.5 23.2 20.1 92 0.9 SSE 11 11 6 6 1011.8 - 0.0
28/03:15am 21.6 23.3 20.1 91 1.0 SSE 11 11 6 6 1012.0 - 0.0
28/03:00am 21.7 23.4 20.2 91 1.0 SSE 11 11 6 6 1012.2 - 0.0
28/02:45am 21.8 23.9 20.2 91 1.0 SSE 9 11 5 6 1012.3 - 0.0
28/02:30am 21.9 23.7 20.3 91 1.0 ESE 11 13 6 7 1012.3 - 0.0
28/02:15am 21.9 24.1 20.3 91 1.0 E 9 13 5 7 1012.2 - 0.0
28/02:00am 22.1 23.5 20.4 90 1.1 ESE 13 13 7 7 1012.3 - 0.0
28/01:45am 22.1 23.9 20.4 90 1.1 SE 11 13 6 7 1012.6 - 0.0
28/01:30am 22.2 24.0 20.4 89 1.2 ESE 11 13 6 7 1012.7 - 0.0
28/01:15am 22.2 23.6 20.4 89 1.2 ESE 13 13 7 7 1013.3 - 0.0
28/01:00am 22.3 24.1 20.4 89 1.2 ESE 11 15 6 8 1012.7 - 0.0
28/12:45am 22.3 24.1 20.4 89 1.2 ESE 11 13 6 7 1012.9 - 0.0
28/12:30am 22.4 23.8 20.4 88 1.3 ESE 13 13 7 7 1013.1 - 0.0
28/12:15am 22.5 23.9 20.4 88 1.4 SE 13 13 7 7 1013.5 - 0.0
28/12:00am 22.6 24.1 20.5 88 1.4 ESE 13 13 7 7 1013.5 - 0.0
 
Date/Time
EDT
Temp
°C
App
Temp
°C
Dew
Point
°C
Rel
Hum
%
Delta-T
°C
Wind Press
QNH
hPa
Press
MSL
hPa
Rain since
9am
mm
Dir  Spd
km/h
Gust
km/h
Spd
kts
Gust
kts
27/11:45pm 22.8 23.9 20.5 87 1.5 SE 15 17 8 9 1013.5 - 0.0
27/11:30pm 22.9 24.4 20.5 86 1.6 SE 13 15 7 8 1013.4 - 0.0
27/11:15pm 23.0 25.2 20.5 86 1.6 ESE 9 11 5 6 1013.4 - 0.0
27/11:00pm 23.2 25.4 20.4 84 1.8 ESE 9 11 5 6 1013.4 - 0.0
27/10:45pm 23.4 25.6 20.3 83 2.0 ESE 9 11 5 6 1013.4 - 0.0
27/10:30pm 23.7 25.9 20.4 82 2.2 E 9 11 5 6 1013.4 - 0.0
27/10:15pm 23.9 26.1 20.3 80 2.3 E 9 13 5 7 1013.3 - 0.0
27/10:00pm 23.9 25.7 20.3 80 2.3 ENE 11 13 6 7 1013.0 - 0.0
27/09:45pm 24.1 25.9 20.4 80 2.4 ENE 11 13 6 7 1012.9 - 0.0
27/09:30pm 24.1 26.0 20.6 81 2.3 NE 11 13 6 7 1012.8 - 0.0
27/09:15pm 24.3 25.6 20.8 81 2.3 NE 15 17 8 9 1012.7 - 0.0
27/09:00pm 24.4 25.8 21.1 82 2.2 NNE 15 20 8 11 1012.7 - 0.0
27/08:45pm 24.4 24.9 21.2 82 2.1 NNE 20 26 11 14 1012.6 - 0.0
27/08:30pm 24.5 25.3 21.3 82 2.1 NNE 19 22 10 12 1012.3 - 0.0
27/08:15pm 24.6 25.3 21.2 81 2.3 NNE 19 20 10 11 1011.9 - 0.0
27/08:00pm 24.8 25.6 21.4 81 2.3 NNE 19 22 10 12 1011.8 - 0.0
27/07:45pm 24.9 27.3 21.6 82 2.2 NE 11 15 6 8 1011.7 - 0.0
27/07:30pm 24.9 27.3 21.6 82 2.2 NE 11 17 6 9 1011.6 - 0.0
27/07:15pm 24.9 26.1 21.5 81 2.3 NE 17 22 9 12 1011.3 - 0.0
27/07:00pm 25.0 26.1 21.2 79 2.5 NE 17 20 9 11 1011.1 - 0.0
27/06:45pm 25.4 26.6 21.5 79 2.6 NE 17 22 9 12 1010.8 - 0.0
27/06:30pm 25.3 26.5 21.5 79 2.5 ENE 17 22 9 12 1010.7 - 0.0
27/06:15pm 25.1 26.2 21.3 79 2.5 NE 17 22 9 12 1010.9 - 0.0
27/06:00pm 25.3 26.4 21.3 78 2.7 E 17 19 9 10 1011.0 - 0.0
27/05:45pm 25.5 26.6 21.2 77 2.9 E 17 22 9 12 1011.1 - 0.0
27/05:30pm 25.7 26.8 21.3 76 2.9 E 17 22 9 12 1011.1 - 0.0
27/05:15pm 25.5 26.3 21.3 77 2.8 E 19 24 10 13 1011.3 - 0.0
27/05:00pm 25.4 25.8 21.0 76 2.9 E 20 26 11 14 1011.5 - 0.0
27/04:45pm 26.2 26.9 21.2 74 3.3 E 19 24 10 13 1011.6 - 0.0
27/04:30pm 26.8 27.6 21.4 72 3.6 E 19 22 10 12 1011.7 - 0.0
27/04:15pm 26.8 27.6 21.4 72 3.6 E 19 26 10 14 1011.6 - 0.0
27/04:00pm 26.8 28.0 21.4 72 3.6 E 17 26 9 14 1011.7 - 0.0
27/03:45pm 27.0 28.1 21.3 71 3.8 E 17 24 9 13 1011.6 - 0.0
27/03:30pm 27.3 28.2 21.5 70 3.9 E 19 24 10 13 1011.7 - 0.0
27/03:15pm 27.3 28.0 21.5 70 3.9 E 20 28 11 15 1011.8 - 0.0
27/03:00pm 27.2 28.0 21.4 70 3.9 ESE 19 26 10 14 1012.0 - 0.0
27/02:45pm 27.6 28.3 21.2 68 4.3 ESE 19 24 10 13 1012.1 - 0.0
27/02:30pm 27.6 28.4 21.4 69 4.2 E 19 22 10 12 1012.3 - 0.0
27/02:15pm 27.5 28.1 21.1 68 4.3 ESE 19 24 10 13 1012.5 - 0.0
27/02:00pm 28.0 29.1 21.3 67 4.5 E 17 24 9 13 1012.6 - 0.0
27/01:45pm 27.8 29.0 21.5 68 4.2 E 17 22 9 12 1012.8 - 0.0
27/01:30pm 27.6 29.5 21.4 69 4.2 E 13 19 7 10 1012.9 - 0.0
27/01:15pm 27.0 28.0 21.0 69 4.0 E 17 20 9 11 1013.1 - 0.0
27/01:00pm 27.1 28.5 21.1 69 4.0 ESE 15 20 8 11 1013.3 - 0.0
27/12:45pm 27.2 28.6 21.1 69 4.1 E 15 24 8 13 1013.4 - 0.0
27/12:30pm 27.2 28.2 21.1 69 4.1 E 17 19 9 10 1013.5 - 0.0
27/12:15pm 27.0 28.4 21.0 69 4.0 ESE 15 22 8 12 1013.6 - 0.0
27/12:00pm 27.0 28.3 20.9 69 4.0 E 15 20 8 11 1013.8 - 0.0
27/11:45am 26.5 27.8 20.8 71 3.8 ESE 15 19 8 10 1014.0 - 0.0
27/11:30am 26.9 28.2 20.9 69 4.0 ESE 15 26 8 14 1014.1 - 0.0
27/11:15am 26.6 28.1 20.6 69 4.0 ESE 13 19 7 10 1014.1 - 0.0
27/11:00am 26.4 27.9 20.6 70 3.8 ESE 13 19 7 10 1014.2 - 0.0
27/10:45am 26.6 27.9 20.8 70 3.8 E 15 19 8 10 1014.3 - 0.0
27/10:30am 26.6 28.3 21.0 71 3.7 ESE 13 19 7 10 1014.3 - 0.0
27/10:15am 26.3 28.4 21.0 72 3.5 SE 11 15 6 8 1014.4 - 0.0
27/10:00am 25.8 26.7 20.9 74 3.2 SE 17 22 9 12 1014.4 - 0.0
27/09:45am 25.7 26.1 20.9 75 3.2 SSE 20 26 11 14 1014.3 - 0.0
27/09:30am 25.3 25.7 20.7 75 3.0 SSE 19 24 10 13 1014.4 - 0.0
27/09:15am 24.8 25.2 20.7 78 2.7 SSE 19 24 10 13 1014.5 - 0.0
27/09:00am 24.1 23.8 20.3 79 2.5 SSE 22 28 12 15 1014.5 - 0.0
27/08:45am 23.7 22.9 20.1 80 2.3 SSE 24 28 13 15 1014.4 - 0.0
27/08:30am 23.5 23.1 20.1 81 2.2 SSE 22 28 12 15 1014.4 - 0.0
27/08:15am 23.1 23.6 20.0 83 2.0 SSE 17 19 9 10 1014.5 - 0.0
27/08:00am 22.8 24.0 19.9 84 1.9 S 13 19 7 10 1014.6 - 0.0
27/07:45am 22.4 23.1 19.6 84 1.8 S 15 19 8 10 1014.6 - 0.0
27/07:30am 22.2 22.8 19.5 85 1.7 S 15 19 8 10 1014.5 - 0.0
27/07:15am 22.1 22.7 19.4 85 1.7 S 15 24 8 13 1014.4 - 0.0
27/07:00am 22.1 23.1 19.4 85 1.7 S 13 17 7 9 1014.3 - 0.0
27/06:45am 22.0 23.0 19.4 85 1.7 S 13 17 7 9 1014.2 - 0.0
27/06:30am 22.0 23.3 19.3 85 1.7 S 11 17 6 9 1014.1 - 0.0
27/06:15am 21.9 22.1 19.4 86 1.6 S 17 20 9 11 1014.0 - 0.0
27/06:00am 21.9 22.5 19.4 86 1.6 S 15 22 8 12 1013.8 - 0.0
27/05:45am 21.8 22.4 19.4 86 1.5 S 15 22 8 12 1013.6 - 0.0
27/05:30am 21.8 22.0 19.3 86 1.6 S 17 26 9 14 1013.4 - 0.0
27/05:15am 21.8 20.6 19.3 86 1.6 SSE 24 32 13 17 1013.2 - 0.0
27/05:00am 21.8 21.1 19.4 86 1.5 S 22 30 12 16 1013.1 - 0.0
27/04:45am 21.8 20.7 19.4 86 1.5 S 24 30 13 16 1013.0 - 0.0
27/04:30am 21.8 20.7 19.4 86 1.5 S 24 32 13 17 1012.9 - 0.0
27/04:15am 21.9 21.2 19.4 86 1.6 SSE 22 28 12 15 1012.9 - 0.0
27/04:00am 21.9 20.8 19.4 86 1.6 SSE 24 32 13 17 1012.9 - 0.0
27/03:45am 22.0 20.1 19.4 85 1.7 SSE 28 35 15 19 1012.9 - 0.0
27/03:30am 22.0 19.3 19.3 85 1.7 SSE 32 43 17 23 1012.8 - 0.0
27/03:15am 22.0 19.1 19.3 85 1.7 SSE 33 41 18 22 1012.8 - 0.0
27/03:00am 22.1 19.3 19.4 85 1.7 SSE 33 41 18 22 1012.7 - 0.0
27/02:45am 22.2 18.6 19.4 84 1.8 SSE 37 43 20 23 1012.7 - 0.0
27/02:30am 22.3 18.7 19.4 83 1.9 SSE 37 46 20 25 1012.8 - 0.0
27/02:15am 22.4 18.9 19.5 84 1.9 SSE 37 50 20 27 1012.8 - 0.0
27/02:00am 22.4 18.9 19.6 84 1.8 SSE 37 46 20 25 1012.6 - 0.0
27/01:45am 22.5 17.7 19.6 84 1.9 SSE 44 56 24 30 1012.4 - 0.0
27/01:30am 22.7 18.1 19.7 83 1.9 SSE 43 52 23 28 1012.5 - 0.0
27/01:15am 22.9 18.4 19.9 83 1.9 SSE 43 54 23 29 1013.3 - 0.0
27/01:00am 23.0 18.9 20.0 83 1.9 SSE 41 52 22 28 1012.8 - 0.0
27/12:45am 23.1 20.5 20.0 83 2.0 SSE 33 46 18 25 1012.9 - 0.0
27/12:30am 23.4 21.0 20.3 83 2.0 SSE 33 44 18 24 1012.9 - 0.0
27/12:15am 23.8 21.3 20.8 83 2.0 SSE 35 46 19 25 1013.0 - 0.0
27/12:00am 24.4 23.3 21.1 82 2.2 SSE 28 37 15 20 1013.2 - 0.0
 
Date/Time
EDT
Temp
°C
App
Temp
°C
Dew
Point
°C
Rel
Hum
%
Delta-T
°C
Wind Press
QNH
hPa
Press
MSL
hPa
Rain since
9am
mm
Dir  Spd
km/h
Gust
km/h
Spd
kts
Gust
kts
26/11:45pm 25.4 23.8 20.8 75 3.0 SE 30 37 16 20 1013.2 - 0.0
26/11:30pm 26.0 23.9 20.5 71 3.6 SSE 32 41 17 22 1013.0 - 0.0
26/11:15pm 26.1 27.4 20.2 70 3.9 N 13 28 7 15 1012.2 - 0.0
26/11:00pm 26.1 27.8 20.1 69 3.9 NNW 11 15 6 8 1012.0 - 0.0
26/10:45pm 26.4 27.3 20.1 68 4.1 NNW 15 17 8 9 1011.9 - 0.0
26/10:30pm 27.0 27.6 20.3 66 4.4 NW 17 19 9 10 1011.8 - 0.0
26/10:15pm 27.0 27.7 20.4 67 4.4 NNW 17 17 9 9 1011.8 - 0.0
26/10:00pm 27.2 29.0 20.4 66 4.5 NW 11 13 6 7 1011.5 - 0.0
26/09:45pm 27.5 29.4 20.5 65 4.6 NW 11 13 6 7 1011.4 - 0.0
26/09:30pm 27.6 29.4 20.4 65 4.8 NNW 11 11 6 6 1011.3 - 0.0
26/09:15pm 27.7 29.2 20.5 65 4.8 NNW 13 15 7 8 1011.2 - 0.0
26/09:00pm 28.1 29.6 20.5 63 5.0 NNW 13 15 7 8 1011.0 - 0.0
26/08:45pm 28.3 30.2 20.5 62 5.2 NW 11 15 6 8 1010.9 - 0.0

Latest Capital City Observations: Canberra | Sydney | Melbourne | Brisbane | Adelaide | Perth | Hobart | Darwin

Other formats

Comma delimited format used in spreadsheet applications
http://www.bom.gov.au/fwo/IDN60901/IDN60901.95757.axf

JavaScript Object Notation format (JSON) in row-major order
http://www.bom.gov.au/fwo/IDN60901/IDN60901.95757.json

Data quality

Most of these data are generated automatically and are frequently updated. Quality checks on data are not normally performed. It is possible for incorrect values to appear. Refer to information at About Latest Weather Observations and please check the disclaimer before using these data.